createdAt,value
2022-08-20T00:01:02.532Z,97274.47
2022-08-20T00:03:38.573Z,97276.28
2022-08-20T00:06:05.599Z,97272.06
2022-08-20T00:08:32.390Z,97267.06
2022-08-20T00:10:59.145Z,97271.41
2022-08-20T00:13:41.942Z,97262.41
2022-08-20T00:16:10.372Z,97270.41
2022-08-20T00:18:37.412Z,97272.16
2022-08-20T00:21:07.896Z,97267.31
2022-08-20T00:23:37.129Z,97278.28
2022-08-20T00:26:04.848Z,97280.50
2022-08-20T00:28:31.658Z,97281.63
2022-08-20T00:30:58.579Z,97283.53
2022-08-20T00:33:25.633Z,97270.13
2022-08-20T00:35:56.429Z,97269.13
2022-08-20T00:38:24.923Z,97274.44
2022-08-20T00:40:55.808Z,97277.59
2022-08-20T00:43:36.988Z,97288.97
2022-08-20T00:46:11.001Z,97285.03
2022-08-20T00:48:43.866Z,97283.47
2022-08-20T00:51:22.289Z,97282.06
2022-08-20T00:53:48.938Z,97285.31
2022-08-20T00:56:15.641Z,97291.81
2022-08-20T00:58:45.090Z,97287.06
2022-08-20T01:01:13.133Z,97296.81
2022-08-20T01:03:42.282Z,97301.00
2022-08-20T01:06:11.666Z,97300.63
2022-08-20T01:08:39.882Z,97303.19
2022-08-20T01:11:10.516Z,97306.53
2022-08-20T01:13:38.744Z,97305.31
2022-08-20T01:16:20.976Z,97299.94
2022-08-20T01:18:49.432Z,97302.69
2022-08-20T01:21:19.994Z,97301.97
2022-08-20T01:23:56.404Z,97302.69
2022-08-20T01:26:30.903Z,97306.09
2022-08-20T01:29:02.294Z,97305.28
2022-08-20T01:31:32.680Z,97312.75
2022-08-20T01:34:01.965Z,97305.06
2022-08-20T01:36:35.692Z,97309.44
2022-08-20T01:39:06.090Z,97305.47
2022-08-20T01:41:39.394Z,97316.94
2022-08-20T01:44:05.901Z,97314.72
2022-08-20T01:46:43.632Z,97316.66
2022-08-20T01:49:23.084Z,97320.47
2022-08-20T01:51:53.588Z,97327.69
2022-08-20T01:54:21.632Z,97326.94
2022-08-20T01:57:02.390Z,97322.38
2022-08-20T01:59:29.581Z,97325.78
2022-08-20T02:01:56.734Z,97325.59
2022-08-20T02:04:23.937Z,97327.50
2022-08-20T02:06:57.753Z,97326.19
2022-08-20T02:09:34.477Z,97326.28
2022-08-20T02:12:03.340Z,97332.34
2022-08-20T02:14:30.415Z,97329.09
2022-08-20T02:16:58.430Z,97326.06
2022-08-20T02:20:14.735Z,97328.13
2022-08-20T02:22:56.617Z,97330.63
2022-08-20T02:25:26.304Z,97328.22
2022-08-20T02:27:54.672Z,97336.63
2022-08-20T02:30:34.945Z,97328.28
2022-08-20T02:33:04.020Z,97330.59
2022-08-20T02:35:32.356Z,97334.13
2022-08-20T02:38:00.796Z,97330.81
2022-08-20T02:40:30.931Z,97331.56
2022-08-20T02:42:59.515Z,97332.34
2022-08-20T02:45:26.498Z,97324.69
2022-08-20T02:47:53.976Z,97332.81
2022-08-20T02:50:23.808Z,97332.66
2022-08-20T02:52:51.748Z,97328.50
2022-08-20T02:55:27.796Z,97335.31
2022-08-20T02:58:00.983Z,97333.59
2022-08-20T03:00:32.222Z,97328.22
2022-08-20T03:03:06.873Z,97327.84
2022-08-20T03:05:33.817Z,97328.06
2022-08-20T03:08:00.373Z,97334.88
2022-08-20T03:10:31.994Z,97327.69
2022-08-20T03:13:01.016Z,97322.09
2022-08-20T03:15:29.279Z,97322.44
2022-08-20T03:17:56.011Z,97325.16
2022-08-20T03:20:24.018Z,97320.00
2022-08-20T03:22:51.528Z,97325.63
2022-08-20T03:25:18.755Z,97322.47
2022-08-20T03:27:47.048Z,97321.56
2022-08-20T03:30:20.305Z,97327.25
2022-08-20T03:32:47.226Z,97316.97
2022-08-20T03:35:16.305Z,97324.00
2022-08-20T03:37:48.224Z,97312.13
2022-08-20T03:40:20.669Z,97308.28
2022-08-20T03:42:47.221Z,97307.75
2022-08-20T03:45:18.389Z,97307.44
2022-08-20T03:47:46.853Z,97305.22
2022-08-20T03:50:14.763Z,97314.25
2022-08-20T03:52:51.080Z,97314.53
2022-08-20T03:55:17.637Z,97315.66
2022-08-20T03:57:50.677Z,97320.97
2022-08-20T04:00:21.960Z,97319.34
2022-08-20T04:02:48.952Z,97315.06
2022-08-20T04:05:15.609Z,97322.16
2022-08-20T04:07:42.441Z,97320.84
2022-08-20T04:10:12.060Z,97321.66
2022-08-20T04:12:48.661Z,97321.38
2022-08-20T04:15:19.960Z,97333.75
2022-08-20T04:17:50.403Z,97325.53
2022-08-20T04:20:23.047Z,97326.22
2022-08-20T04:22:59.475Z,97332.03
2022-08-20T04:25:36.165Z,97330.38
2022-08-20T04:28:05.864Z,97333.66
2022-08-20T04:30:33.305Z,97335.28
2022-08-20T04:33:00.630Z,97337.41
2022-08-20T04:35:27.748Z,97339.84
2022-08-20T04:38:09.864Z,97338.44
2022-08-20T04:40:57.985Z,97338.44
2022-08-20T04:43:36.065Z,97336.47
2022-08-20T04:46:06.325Z,97345.81
2022-08-20T04:48:33.112Z,97346.44
2022-08-20T04:51:02.564Z,97338.00
2022-08-20T04:53:30.681Z,97337.72
2022-08-20T04:55:59.917Z,97345.09
2022-08-20T04:58:37.989Z,97342.59
2022-08-20T05:01:08.053Z,97344.09
2022-08-20T05:03:35.244Z,97346.25
2022-08-20T05:06:01.785Z,97350.91
2022-08-20T05:08:29.804Z,97352.53
2022-08-20T05:11:06.744Z,97359.13
2022-08-20T05:13:44.266Z,97352.94
2022-08-20T05:16:10.736Z,97360.66
2022-08-20T05:18:37.356Z,97359.66
2022-08-20T05:21:06.032Z,97361.25
2022-08-20T05:23:35.618Z,97366.63
2022-08-20T05:26:07.517Z,97365.75
2022-08-20T05:28:35.479Z,97372.84
2022-08-20T05:31:15.210Z,97376.41
2022-08-20T05:33:41.704Z,97377.91
2022-08-20T05:36:08.519Z,97381.06
2022-08-20T05:38:36.960Z,97379.44
2022-08-20T05:41:04.957Z,97376.09
2022-08-20T05:43:33.415Z,97377.91
2022-08-20T05:46:01.000Z,97378.22
2022-08-20T05:48:28.223Z,97374.25
2022-08-20T05:50:55.424Z,97371.81
2022-08-20T05:53:24.712Z,97372.13
2022-08-20T05:55:51.753Z,97378.75
2022-08-20T05:58:25.135Z,97375.16
2022-08-20T06:00:53.518Z,97379.13
2022-08-20T06:03:38.673Z,97384.31
2022-08-20T06:06:06.016Z,97382.19
2022-08-20T06:08:44.818Z,97378.81
2022-08-20T06:11:11.325Z,97388.88
2022-08-20T06:13:37.785Z,97386.94
2022-08-20T06:16:06.937Z,97388.78
2022-08-20T06:18:34.635Z,97389.28
2022-08-20T06:21:01.085Z,97397.41
2022-08-20T06:23:27.669Z,97395.47
2022-08-20T06:26:14.125Z,97387.94
2022-08-20T06:28:41.165Z,97388.38
2022-08-20T06:31:07.794Z,97388.66
2022-08-20T06:33:34.385Z,97388.78
2022-08-20T06:36:00.845Z,97391.69
2022-08-20T06:38:27.437Z,97397.50
2022-08-20T06:40:54.011Z,97397.34
2022-08-20T06:43:21.384Z,97395.59
2022-08-20T06:45:47.877Z,97404.41
2022-08-20T06:48:15.083Z,97399.50
2022-08-20T06:50:47.655Z,97399.78
2022-08-20T06:53:17.760Z,97410.59
2022-08-20T06:55:50.566Z,97400.09
2022-08-20T06:58:32.775Z,97405.53
2022-08-20T07:01:09.364Z,97402.81
2022-08-20T07:03:38.295Z,97407.00
2022-08-20T07:06:05.543Z,97402.41
2022-08-20T07:08:32.239Z,97406.19
2022-08-20T07:10:59.545Z,97395.56
2022-08-20T07:13:26.539Z,97404.56
2022-08-20T07:15:54.241Z,97403.41
2022-08-20T07:18:28.647Z,97411.91
2022-08-20T07:20:57.332Z,97418.53
2022-08-20T07:23:25.927Z,97410.47
2022-08-20T07:25:52.568Z,97406.25
2022-08-20T07:28:22.617Z,97405.88
2022-08-20T07:31:13.588Z,97414.09
2022-08-20T07:33:41.933Z,97412.44
2022-08-20T07:36:09.000Z,97413.44
2022-08-20T07:38:35.913Z,97416.28
2022-08-20T07:41:04.592Z,97414.50
2022-08-20T07:43:32.756Z,97417.06
2022-08-20T07:46:02.758Z,97413.44
2022-08-20T07:48:31.969Z,97422.44
2022-08-20T07:51:01.655Z,97428.41
2022-08-20T07:53:32.320Z,97431.81
2022-08-20T07:56:03.180Z,97433.06
2022-08-20T07:58:33.475Z,97429.69
2022-08-20T08:01:00.446Z,97432.59
2022-08-20T08:03:37.642Z,97437.66
2022-08-20T08:06:07.644Z,97450.88
2022-08-20T08:08:34.259Z,97435.88
2022-08-20T08:11:03.788Z,97436.47
2022-08-20T08:13:35.667Z,97443.44
2022-08-20T08:16:05.939Z,97433.91
2022-08-20T08:18:51.034Z,97433.38
2022-08-20T08:21:18.965Z,97435.09
2022-08-20T08:23:45.692Z,97433.56
2022-08-20T08:26:19.217Z,97435.66
2022-08-20T08:28:46.425Z,97430.66
2022-08-20T08:31:14.301Z,97432.59
2022-08-20T08:33:41.725Z,97429.84
2022-08-20T08:36:11.954Z,97436.31
2022-08-20T08:38:43.538Z,97429.25
2022-08-20T08:41:29.674Z,97434.19
2022-08-20T08:44:04.647Z,97439.78
2022-08-20T08:46:34.056Z,97435.44
2022-08-20T08:49:02.561Z,97442.31
2022-08-20T08:51:45.012Z,97443.69
2022-08-20T08:54:16.761Z,97445.75
2022-08-20T08:56:43.502Z,97439.63
2022-08-20T08:59:16.244Z,97441.09
2022-08-20T09:01:56.912Z,97441.78
2022-08-20T09:04:32.072Z,97440.97
2022-08-20T09:07:01.574Z,97441.31
2022-08-20T09:09:32.803Z,97448.94
2022-08-20T09:12:09.467Z,97443.38
2022-08-20T09:14:36.880Z,97443.84
2022-08-20T09:17:04.088Z,97442.94
2022-08-20T09:19:31.045Z,97448.09
2022-08-20T09:21:57.932Z,97447.97
2022-08-20T09:24:25.079Z,97456.44
2022-08-20T09:26:51.572Z,97448.81
2022-08-20T09:29:18.236Z,97452.69
2022-08-20T09:31:45.188Z,97454.00
2022-08-20T09:34:13.257Z,97450.59
2022-08-20T09:36:39.717Z,97449.25
2022-08-20T09:39:06.345Z,97447.56
2022-08-20T09:41:33.629Z,97453.03
2022-08-20T09:44:01.636Z,97456.53
2022-08-20T09:46:28.173Z,97461.25
2022-08-20T09:48:55.263Z,97461.63
2022-08-20T09:51:22.763Z,97469.88
2022-08-20T09:53:50.043Z,97471.31
2022-08-20T09:56:17.391Z,97460.59
2022-08-20T09:58:53.156Z,97458.47
2022-08-20T10:01:21.800Z,97462.34
2022-08-20T10:03:49.339Z,97463.50
2022-08-20T10:06:20.278Z,97463.06
2022-08-20T10:08:48.426Z,97471.09
2022-08-20T10:11:15.347Z,97465.16
2022-08-20T10:13:41.976Z,97463.00
2022-08-20T10:16:08.703Z,97476.91
2022-08-20T10:18:36.464Z,97468.28
2022-08-20T10:21:03.680Z,97467.22
2022-08-20T10:23:30.177Z,97469.00
2022-08-20T10:25:56.672Z,97467.16
2022-08-20T10:28:23.175Z,97468.19
2022-08-20T10:30:49.692Z,97461.59
2022-08-20T10:33:16.185Z,97468.25
2022-08-20T10:35:42.656Z,97461.34
2022-08-20T10:38:09.140Z,97458.25
2022-08-20T10:40:35.605Z,97450.44
2022-08-20T10:43:02.994Z,97451.53
2022-08-20T10:45:29.521Z,97449.03
2022-08-20T10:47:59.239Z,97449.34
2022-08-20T10:50:26.062Z,97453.16
2022-08-20T10:52:57.158Z,97453.06
2022-08-20T10:55:23.652Z,97443.91
2022-08-20T10:57:50.209Z,97437.09
2022-08-20T11:00:18.970Z,97444.91
2022-08-20T11:02:45.802Z,97438.72
2022-08-20T11:05:12.580Z,97438.09
2022-08-20T11:07:54.729Z,97439.09
2022-08-20T11:10:27.281Z,97430.00
2022-08-20T11:12:54.184Z,97438.22
2022-08-20T11:15:20.681Z,97441.47
2022-08-20T11:17:47.410Z,97436.03
2022-08-20T11:20:16.236Z,97444.81
2022-08-20T11:22:42.828Z,97434.31
2022-08-20T11:25:10.046Z,97439.03
2022-08-20T11:27:45.028Z,97445.16
2022-08-20T11:30:16.168Z,97436.00
2022-08-20T11:32:42.701Z,97447.53
2022-08-20T11:35:40.397Z,97439.72
2022-08-20T11:37:57.456Z,97449.69
2022-08-20T11:40:25.871Z,97441.94
2022-08-20T11:45:38.969Z,97450.38
2022-08-20T11:48:05.605Z,97441.91
2022-08-20T11:50:32.323Z,97443.19
2022-08-20T11:52:59.090Z,97434.59
2022-08-20T11:55:28.509Z,97440.56
2022-08-20T11:57:56.894Z,97439.59
2022-08-20T12:00:33.105Z,97437.59
2022-08-20T12:03:01.540Z,97448.72
2022-08-20T12:05:29.669Z,97444.28
2022-08-20T12:07:57.471Z,97443.19
2022-08-20T12:10:26.258Z,97441.28
2022-08-20T12:12:52.956Z,97445.78
2022-08-20T12:15:20.057Z,97444.34
2022-08-20T12:17:46.562Z,97444.03
2022-08-20T12:20:15.299Z,97448.31
2022-08-20T12:22:42.054Z,97445.09
2022-08-20T12:25:09.169Z,97458.19
2022-08-20T12:27:37.732Z,97453.81
2022-08-20T12:30:08.921Z,97451.94
2022-08-20T12:32:35.677Z,97454.66
2022-08-20T12:35:02.680Z,97458.00
2022-08-20T12:37:31.132Z,97450.13
2022-08-20T12:39:59.535Z,97454.69
2022-08-20T12:42:27.085Z,97457.00
2022-08-20T12:44:53.697Z,97448.31
2022-08-20T12:47:21.669Z,97443.59
2022-08-20T12:50:00.982Z,97439.81
2022-08-20T12:52:29.236Z,97434.75
2022-08-20T12:54:57.096Z,97438.78
2022-08-20T12:57:25.632Z,97438.88
2022-08-20T12:59:52.321Z,97422.44
2022-08-20T13:02:19.195Z,97428.19
2022-08-20T13:04:45.800Z,97435.34
2022-08-20T13:07:13.252Z,97426.72
2022-08-20T13:09:41.073Z,97428.09
2022-08-20T13:12:08.236Z,97418.72
2022-08-20T13:14:35.212Z,97422.88
2022-08-20T13:17:02.153Z,97423.88
2022-08-20T13:19:30.209Z,97427.16
2022-08-20T13:21:57.166Z,97416.84
2022-08-20T13:24:24.036Z,97430.06
2022-08-20T13:26:50.828Z,97412.69
2022-08-20T13:29:18.602Z,97420.41
2022-08-20T13:31:45.116Z,97421.59
2022-08-20T13:34:12.360Z,97425.13
2022-08-20T13:36:38.900Z,97421.81
2022-08-20T13:39:07.352Z,97409.28
2022-08-20T13:41:34.527Z,97407.13
2022-08-20T13:44:01.063Z,97401.94
2022-08-20T13:46:27.749Z,97402.28
2022-08-20T13:48:54.314Z,97406.91
2022-08-20T13:51:21.751Z,97407.94
2022-08-20T13:53:48.446Z,97406.94
2022-08-20T13:56:14.970Z,97409.72
2022-08-20T13:58:41.490Z,97405.66
2022-08-20T14:01:08.034Z,97410.53
2022-08-20T14:03:35.092Z,97403.34
2022-08-20T14:06:03.201Z,97402.91
2022-08-20T14:08:29.766Z,97400.94
2022-08-20T14:10:56.929Z,97410.34
2022-08-20T14:13:25.400Z,97414.63
2022-08-20T14:15:52.565Z,97407.94
2022-08-20T14:18:19.799Z,97401.09
2022-08-20T14:20:46.604Z,97411.34
2022-08-20T14:23:13.740Z,97405.03
2022-08-20T14:25:40.620Z,97409.59
2022-08-20T14:28:22.533Z,97408.22
2022-08-20T14:30:52.978Z,97410.34
2022-08-20T14:33:20.962Z,97397.34
2022-08-20T14:35:47.450Z,97404.09
2022-08-20T14:38:13.918Z,97408.09
2022-08-20T14:40:40.389Z,97395.19
2022-08-20T14:43:06.905Z,97387.97
2022-08-20T14:45:33.431Z,97397.72
2022-08-20T14:48:00.169Z,97387.88
2022-08-20T14:50:34.189Z,97388.00
2022-08-20T14:53:01.203Z,97386.22
2022-08-20T14:55:33.603Z,97381.00
2022-08-20T14:58:00.100Z,97387.50
2022-08-20T15:00:30.488Z,97385.69
2022-08-20T15:02:57.715Z,97391.69
2022-08-20T15:05:24.677Z,97378.44
2022-08-20T15:07:53.913Z,97380.28
2022-08-20T15:10:24.884Z,97381.06
2022-08-20T15:12:51.521Z,97385.63
2022-08-20T15:15:18.924Z,97385.69
2022-08-20T15:17:53.175Z,97379.47
2022-08-20T15:20:22.390Z,97375.28
2022-08-20T15:22:49.822Z,97372.38
2022-08-20T15:25:19.598Z,97370.69
2022-08-20T15:27:46.457Z,97369.88
2022-08-20T15:30:17.658Z,97361.84
2022-08-20T15:32:45.174Z,97372.69
2022-08-20T15:35:13.121Z,97369.41
2022-08-20T15:37:46.473Z,97373.22
2022-08-20T15:40:16.192Z,97371.59
2022-08-20T15:42:43.789Z,97367.31
2022-08-20T15:45:13.980Z,97368.75
2022-08-20T15:47:52.711Z,97367.25
2022-08-20T15:50:40.901Z,97373.31
2022-08-20T15:53:11.613Z,97363.91
2022-08-20T15:55:43.446Z,97367.25
2022-08-20T15:58:24.332Z,97372.53
2022-08-20T16:01:26.763Z,97369.56
2022-08-20T16:04:04.794Z,97372.13
2022-08-20T16:06:32.998Z,97372.66
2022-08-20T16:09:22.846Z,97379.38
2022-08-20T16:12:06.283Z,97382.41
2022-08-20T16:14:38.380Z,97376.72
2022-08-20T16:17:13.416Z,97392.41
2022-08-20T16:19:51.288Z,97386.50
2022-08-20T16:22:19.738Z,97382.69
2022-08-20T16:24:46.476Z,97392.41
2022-08-20T16:27:44.044Z,97390.25
2022-08-20T16:30:21.493Z,97391.19
2022-08-20T16:32:58.654Z,97384.63
2022-08-20T16:35:31.477Z,97388.13
2022-08-20T16:38:21.041Z,97385.78
2022-08-20T16:40:59.117Z,97383.22
2022-08-20T16:43:50.881Z,97389.44
2022-08-20T16:46:20.975Z,97391.09
2022-08-20T16:48:59.772Z,97387.28
2022-08-20T16:51:36.987Z,97398.88
2022-08-20T16:54:04.425Z,97393.59
2022-08-20T16:56:41.522Z,97402.72
2022-08-20T16:59:24.596Z,97390.81
2022-08-20T17:02:06.948Z,97390.09
2022-08-20T17:04:59.317Z,97387.66
2022-08-20T17:07:46.495Z,97381.47
2022-08-20T17:10:29.144Z,97388.56
2022-08-20T17:13:21.188Z,97383.00
2022-08-20T17:16:02.380Z,97382.44
2022-08-20T17:18:36.576Z,97382.56
2022-08-20T17:21:14.255Z,97388.34
2022-08-20T17:23:56.066Z,97392.50
2022-08-20T17:26:44.055Z,97390.00
2022-08-20T17:29:21.129Z,97391.81
2022-08-20T17:31:59.505Z,97400.25
2022-08-20T17:34:42.737Z,97398.31
2022-08-20T17:37:18.823Z,97397.53
2022-08-20T17:39:48.283Z,97399.88
2022-08-20T17:42:19.279Z,97400.19
2022-08-20T17:44:51.369Z,97403.75
2022-08-20T17:47:19.888Z,97395.31
2022-08-20T17:50:02.644Z,97397.09
2022-08-20T17:52:46.274Z,97402.75
2022-08-20T17:55:13.750Z,97394.59
2022-08-20T17:57:47.816Z,97401.06
2022-08-20T18:00:27.878Z,97404.16
2022-08-20T18:02:59.845Z,97408.09
2022-08-20T18:05:28.452Z,97410.91
2022-08-20T18:08:06.520Z,97409.69
2022-08-20T18:10:42.143Z,97407.19
2022-08-20T18:13:16.835Z,97411.56
2022-08-20T18:15:53.671Z,97412.38
2022-08-20T18:18:52.951Z,97409.16
2022-08-20T18:21:45.005Z,97406.13
2022-08-20T18:24:29.946Z,97416.63
2022-08-20T18:27:02.066Z,97402.66
2022-08-20T18:29:33.935Z,97416.47
2022-08-20T18:32:07.714Z,97408.63
2022-08-20T18:34:41.275Z,97420.59
2022-08-20T18:37:25.275Z,97417.31
2022-08-20T18:39:52.479Z,97422.97
2022-08-20T18:42:39.303Z,97420.16
2022-08-20T18:45:06.756Z,97424.22
2022-08-20T18:47:33.168Z,97422.44
2022-08-20T18:50:06.334Z,97434.88
2022-08-20T18:52:51.907Z,97430.22
2022-08-20T18:55:36.777Z,97431.53
2022-08-20T18:58:29.117Z,97441.06
2022-08-20T19:00:55.742Z,97436.38
2022-08-20T19:03:33.989Z,97436.88
2022-08-20T19:06:18.040Z,97447.56
2022-08-20T19:08:59.429Z,97441.84
2022-08-20T19:11:28.924Z,97449.94
2022-08-20T19:14:33.978Z,97452.00
2022-08-20T19:17:11.323Z,97450.63
2022-08-20T19:19:38.513Z,97449.97
2022-08-20T19:22:05.321Z,97458.97
2022-08-20T19:24:35.169Z,97461.44
2022-08-20T19:27:07.385Z,97458.22
2022-08-20T19:29:42.460Z,97461.25
2022-08-20T19:32:18.992Z,97464.06
2022-08-20T19:34:55.980Z,97463.03
2022-08-20T19:37:34.977Z,97459.75
2022-08-20T19:40:18.224Z,97455.72
2022-08-20T19:42:45.807Z,97460.38
2022-08-20T19:45:26.010Z,97449.03
2022-08-20T19:48:27.493Z,97452.38
2022-08-20T19:51:01.481Z,97449.03
2022-08-20T19:53:31.731Z,97454.91
2022-08-20T19:56:01.804Z,97447.09
2022-08-20T19:58:31.077Z,97448.72
2022-08-20T20:00:58.861Z,97444.47
2022-08-20T20:03:30.254Z,97451.28
2022-08-20T20:05:58.633Z,97454.22
2022-08-20T20:08:43.947Z,97457.28
2022-08-20T20:11:17.265Z,97453.09
2022-08-20T20:13:45.210Z,97451.47
2022-08-20T20:16:15.641Z,97460.91
2022-08-20T20:18:42.834Z,97454.91
2022-08-20T20:21:22.484Z,97455.72
2022-08-20T20:23:57.385Z,97460.16
2022-08-20T20:26:24.489Z,97460.28
2022-08-20T20:28:54.232Z,97455.06
2022-08-20T20:31:25.447Z,97453.19
2022-08-20T20:33:56.129Z,97456.22
2022-08-20T20:36:37.886Z,97454.84
2022-08-20T20:39:13.717Z,97457.22
2022-08-20T20:41:52.347Z,97452.13
2022-08-20T20:44:37.110Z,97456.78
2022-08-20T20:47:07.548Z,97448.22
2022-08-20T20:49:52.143Z,97444.41
2022-08-20T20:52:31.216Z,97440.81
2022-08-20T20:55:14.821Z,97444.50
2022-08-20T20:57:41.421Z,97444.31
2022-08-20T21:00:14.625Z,97437.31
2022-08-20T21:02:41.370Z,97440.88
2022-08-20T21:05:09.401Z,97440.94
2022-08-20T21:07:50.523Z,97444.19
2022-08-20T21:10:19.187Z,97441.28
2022-08-20T21:12:50.432Z,97444.66
2022-08-20T21:15:19.388Z,97435.94
2022-08-20T21:17:45.919Z,97441.47
2022-08-20T21:20:12.524Z,97438.50
2022-08-20T21:22:39.025Z,97437.97
2022-08-20T21:25:06.509Z,97437.94
2022-08-20T21:27:34.158Z,97447.91
2022-08-20T21:30:01.965Z,97447.91
2022-08-20T21:32:28.464Z,97440.66
2022-08-20T21:34:55.182Z,97445.75
2022-08-20T21:37:21.677Z,97444.13
2022-08-20T21:39:48.282Z,97448.44
2022-08-20T21:42:29.086Z,97451.75
2022-08-20T21:44:57.328Z,97448.88
2022-08-20T21:47:23.820Z,97444.75
2022-08-20T21:49:50.337Z,97449.66
2022-08-20T21:52:16.894Z,97452.34
2022-08-20T21:54:43.392Z,97447.63
2022-08-20T21:57:18.897Z,97456.94
2022-08-20T21:59:45.468Z,97465.16
2022-08-20T22:02:12.313Z,97453.31
2022-08-20T22:04:38.896Z,97457.00
2022-08-20T22:07:06.129Z,97454.91
2022-08-20T22:09:33.046Z,97460.72
2022-08-20T22:12:03.819Z,97462.22
2022-08-20T22:14:31.226Z,97462.38
2022-08-20T22:16:58.524Z,97465.19
2022-08-20T22:19:25.241Z,97463.66
2022-08-20T22:21:54.788Z,97454.72
2022-08-20T22:24:22.921Z,97467.59
2022-08-20T22:26:49.477Z,97465.44
2022-08-20T22:29:15.945Z,97467.63
2022-08-20T22:31:43.926Z,97473.38
2022-08-20T22:34:12.342Z,97465.00
2022-08-20T22:36:39.087Z,97467.69
2022-08-20T22:39:06.538Z,97470.72
2022-08-20T22:41:33.469Z,97466.84
2022-08-20T22:43:59.980Z,97464.41
2022-08-20T22:46:30.269Z,97471.81
2022-08-20T22:48:57.076Z,97473.72
2022-08-20T22:51:28.252Z,97475.38
2022-08-20T22:53:54.844Z,97473.19
2022-08-20T22:56:22.905Z,97479.25
2022-08-20T22:58:50.238Z,97469.44
2022-08-20T23:01:18.397Z,97473.00
2022-08-20T23:03:45.348Z,97472.22
2022-08-20T23:06:12.747Z,97474.41
2022-08-20T23:08:40.569Z,97464.59
2022-08-20T23:11:07.270Z,97466.78
2022-08-20T23:13:34.509Z,97473.88
2022-08-20T23:16:01.396Z,97474.97
2022-08-20T23:18:28.125Z,97477.69
2022-08-20T23:20:56.953Z,97477.69
2022-08-20T23:23:25.193Z,97477.97
2022-08-20T23:25:52.658Z,97475.81
2022-08-20T23:28:21.741Z,97465.75
2022-08-20T23:30:48.484Z,97470.09
2022-08-20T23:33:16.132Z,97459.47
2022-08-20T23:35:43.689Z,97470.34
2022-08-20T23:38:10.473Z,97475.28
2022-08-20T23:40:37.384Z,97471.75
2022-08-20T23:43:05.006Z,97465.22
2022-08-20T23:45:32.889Z,97462.78
2022-08-20T23:47:59.400Z,97467.69
2022-08-20T23:50:29.252Z,97460.31
2022-08-20T23:52:57.273Z,97466.34
2022-08-20T23:55:24.600Z,97460.63
2022-08-20T23:57:52.007Z,97458.44
